Time;durP1;ratioP1;P1;durP2;ratioP2;P2;SDS_P1;SDS_P2;PMS_P1;PMS_P2;Temp;Humidity;BMP_temperature;BMP_pressure;BME280_temperature;BME280_humidity;BME280_pressure;Samples;Min_cycle;Max_cycle;Signal;HPM_P1;HPM_P2
2021/08/31 00:01:36;;;;;;;0.10;0.10;;;;;;;;;;5049412;28;20271;-61
2021/08/31 00:04:03;;;;;;;0.10;0.10;;;;;;;;;;5061851;28;20210;-60
2021/08/31 00:06:31;;;;;;;0.20;0.20;;;;;;;;;;5060127;28;20330;-60
2021/08/31 00:08:57;;;;;;;0.15;0.15;;;;;;;;;;5056204;28;20275;-62
2021/08/31 00:11:23;;;;;;;0.00;0.00;;;;;;;;;;5047898;28;20262;-61
2021/08/31 00:13:50;;;;;;;0.10;0.10;;;;;;;;;;5062412;28;20201;-59
2021/08/31 00:16:16;;;;;;;0.10;0.10;;;;;;;;;;5061069;28;20437;-60
2021/08/31 00:18:42;;;;;;;0.10;0.10;;;;;;;;;;5064341;28;20527;-60
2021/08/31 00:21:09;;;;;;;0.10;0.10;;;;;;;;;;5064244;28;20228;-61
2021/08/31 00:23:36;;;;;;;0.10;0.10;;;;;;;;;;5058546;28;20449;-61
2021/08/31 00:26:03;;;;;;;0.10;0.10;;;;;;;;;;5047340;28;20211;-60
2021/08/31 00:28:29;;;;;;;0.05;0.05;;;;;;;;;;5047853;28;20247;-60
2021/08/31 00:30:55;;;;;;;0.10;0.10;;;;;;;;;;5052926;28;20220;-61
2021/08/31 00:33:21;;;;;;;0.10;0.10;;;;;;;;;;5061499;28;20258;-62
2021/08/31 00:35:47;;;;;;;0.10;0.10;;;;;;;;;;5044090;28;20209;-61
2021/08/31 00:38:14;;;;;;;0.10;0.10;;;;;;;;;;5062506;28;20208;-61
2021/08/31 00:40:41;;;;;;;0.10;0.10;;;;;;;;;;5057974;28;20197;-61
2021/08/31 00:43:08;;;;;;;0.00;0.00;;;;;;;;;;5056882;28;20216;-61
2021/08/31 00:45:34;;;;;;;0.00;0.00;;;;;;;;;;5060209;28;20215;-61
2021/08/31 00:48:02;;;;;;;0.20;0.20;;;;;;;;;;5053574;28;20517;-61
2021/08/31 00:50:28;;;;;;;0.10;0.10;;;;;;;;;;5061487;28;20220;-61
2021/08/31 00:52:54;;;;;;;0.03;0.03;;;;;;;;;;5060245;28;20215;-60
2021/08/31 00:55:20;;;;;;;0.05;0.05;;;;;;;;;;5061842;28;20258;-61
2021/08/31 00:57:48;;;;;;;0.00;0.00;;;;;;;;;;5046902;28;20251;-60
2021/08/31 01:00:15;;;;;;;0.10;0.10;;;;;;;;;;5047936;28;20205;-60
2021/08/31 01:02:41;;;;;;;0.00;0.00;;;;;;;;;;5054079;28;20219;-60
2021/08/31 01:05:08;;;;;;;0.20;0.20;;;;;;;;;;5049943;28;20265;-59
2021/08/31 01:07:35;;;;;;;0.10;0.10;;;;;;;;;;5056471;28;20265;-60
2021/08/31 01:10:01;;;;;;;0.10;0.10;;;;;;;;;;5058358;28;20455;-61
2021/08/31 01:12:28;;;;;;;0.10;0.10;;;;;;;;;;5062499;28;20266;-61
2021/08/31 01:14:56;;;;;;;0.10;0.10;;;;;;;;;;5071847;28;20245;-61
2021/08/31 01:17:24;;;;;;;0.38;0.38;;;;;;;;;;5064849;28;20209;-60
2021/08/31 01:19:50;;;;;;;0.10;0.10;;;;;;;;;;5068938;28;20244;-61
2021/08/31 01:22:16;;;;;;;0.00;0.00;;;;;;;;;;5074047;28;20215;-62
2021/08/31 01:24:43;;;;;;;0.10;0.10;;;;;;;;;;5082053;28;20215;-60
2021/08/31 01:27:11;;;;;;;0.10;0.10;;;;;;;;;;5070016;28;20256;-60
2021/08/31 01:29:37;;;;;;;0.10;0.10;;;;;;;;;;5074052;28;20223;-60
2021/08/31 01:32:04;;;;;;;0.10;0.10;;;;;;;;;;5067313;28;20202;-60
2021/08/31 01:34:31;;;;;;;0.10;0.10;;;;;;;;;;5070441;28;20201;-60
2021/08/31 01:36:57;;;;;;;0.10;0.10;;;;;;;;;;5063292;28;20393;-60
2021/08/31 01:39:24;;;;;;;0.10;0.10;;;;;;;;;;5064216;28;20208;-60
2021/08/31 01:41:50;;;;;;;0.10;0.10;;;;;;;;;;5066451;28;20246;-60
2021/08/31 01:44:19;;;;;;;0.10;0.10;;;;;;;;;;5063925;28;20208;-61
2021/08/31 01:46:45;;;;;;;0.10;0.10;;;;;;;;;;5068680;28;20428;-61
2021/08/31 01:49:12;;;;;;;0.10;0.10;;;;;;;;;;5067127;28;20538;-61
2021/08/31 01:51:38;;;;;;;0.03;0.03;;;;;;;;;;5071726;28;20283;-62
2021/08/31 01:54:05;;;;;;;0.10;0.10;;;;;;;;;;5085269;28;20480;-60
2021/08/31 01:56:31;;;;;;;0.05;0.05;;;;;;;;;;5081579;28;20537;-60
2021/08/31 01:58:58;;;;;;;0.10;0.10;;;;;;;;;;5083418;28;20359;-60
2021/08/31 02:01:25;;;;;;;0.10;0.10;;;;;;;;;;5076974;28;20208;-60
2021/08/31 02:03:52;;;;;;;0.10;0.10;;;;;;;;;;5080946;28;20207;-63
2021/08/31 02:06:18;;;;;;;0.00;0.00;;;;;;;;;;5073260;28;20253;-60
2021/08/31 02:08:44;;;;;;;0.10;0.10;;;;;;;;;;5072210;28;20215;-60
2021/08/31 02:11:11;;;;;;;0.15;0.15;;;;;;;;;;5066577;28;20265;-61
2021/08/31 02:13:37;;;;;;;0.08;0.08;;;;;;;;;;5073718;28;20269;-61
2021/08/31 02:16:04;;;;;;;0.03;0.03;;;;;;;;;;5069145;28;20208;-60
2021/08/31 02:18:31;;;;;;;0.10;0.10;;;;;;;;;;5057684;28;20225;-61
2021/08/31 02:20:58;;;;;;;0.10;0.10;;;;;;;;;;5051966;28;20201;-61
2021/08/31 02:23:24;;;;;;;0.10;0.10;;;;;;;;;;5062904;28;20208;-61
2021/08/31 02:25:50;;;;;;;0.00;0.00;;;;;;;;;;5060080;28;20205;-60
2021/08/31 02:28:16;;;;;;;0.10;0.10;;;;;;;;;;5055559;28;20220;-61
2021/08/31 02:30:43;;;;;;;0.05;0.05;;;;;;;;;;5060401;28;20266;-61
2021/08/31 02:33:09;;;;;;;0.10;0.10;;;;;;;;;;5061577;28;20202;-61
2021/08/31 02:35:37;;;;;;;0.08;0.08;;;;;;;;;;5056960;28;20219;-61
2021/08/31 02:38:03;;;;;;;0.00;0.00;;;;;;;;;;5051346;28;20205;-61
2021/08/31 02:40:29;;;;;;;0.00;0.00;;;;;;;;;;5055280;28;20201;-61
2021/08/31 02:42:56;;;;;;;0.10;0.10;;;;;;;;;;5065990;28;20401;-61
2021/08/31 02:45:22;;;;;;;0.10;0.10;;;;;;;;;;5065663;28;20206;-60
2021/08/31 02:47:48;;;;;;;0.10;0.10;;;;;;;;;;5053450;28;20280;-62
2021/08/31 02:50:15;;;;;;;0.00;0.00;;;;;;;;;;5059813;28;20231;-60
2021/08/31 02:52:44;;;;;;;0.00;0.00;;;;;;;;;;5065667;28;20212;-61
2021/08/31 02:55:10;;;;;;;0.10;0.10;;;;;;;;;;5065190;28;20310;-61
2021/08/31 02:57:38;;;;;;;0.10;0.10;;;;;;;;;;5064755;28;20456;-61
2021/08/31 03:00:04;;;;;;;0.10;0.10;;;;;;;;;;5056985;28;20336;-60
2021/08/31 03:02:31;;;;;;;0.03;0.03;;;;;;;;;;5058339;28;20454;-61
2021/08/31 03:04:57;;;;;;;0.85;0.85;;;;;;;;;;5057204;28;20316;-62
2021/08/31 03:07:23;;;;;;;0.10;0.10;;;;;;;;;;5055318;28;20246;-59
2021/08/31 03:09:51;;;;;;;0.07;0.07;;;;;;;;;;5060470;28;20231;-60
2021/08/31 03:12:17;;;;;;;0.00;0.00;;;;;;;;;;5061537;28;20208;-61
2021/08/31 03:14:43;;;;;;;0.10;0.10;;;;;;;;;;5065117;28;20211;-61
2021/08/31 03:17:10;;;;;;;0.10;0.10;;;;;;;;;;5063893;28;20206;-60
2021/08/31 03:19:36;;;;;;;0.10;0.10;;;;;;;;;;5065211;28;20224;-61
2021/08/31 03:22:04;;;;;;;0.10;0.10;;;;;;;;;;5065893;28;20256;-60
2021/08/31 03:24:31;;;;;;;0.07;0.07;;;;;;;;;;5065318;28;20362;-60
2021/08/31 03:26:58;;;;;;;0.03;0.03;;;;;;;;;;5078632;28;20321;-60
2021/08/31 03:29:24;;;;;;;0.10;0.10;;;;;;;;;;5083072;28;20203;-61
2021/08/31 03:31:51;;;;;;;0.00;0.00;;;;;;;;;;5057062;28;20305;-61
2021/08/31 03:34:17;;;;;;;0.10;0.10;;;;;;;;;;5069840;28;20205;-60
2021/08/31 03:36:44;;;;;;;0.10;0.10;;;;;;;;;;5079338;28;20209;-60
2021/08/31 03:39:11;;;;;;;0.10;0.10;;;;;;;;;;5068467;28;20273;-61
2021/08/31 03:41:37;;;;;;;0.03;0.03;;;;;;;;;;5065623;28;20386;-61
2021/08/31 03:44:05;;;;;;;0.10;0.10;;;;;;;;;;5071371;28;20212;-60
2021/08/31 03:46:31;;;;;;;0.10;0.10;;;;;;;;;;5071576;28;20208;-61
2021/08/31 03:48:57;;;;;;;0.08;0.08;;;;;;;;;;5064752;28;20206;-61
2021/08/31 03:51:24;;;;;;;0.10;0.10;;;;;;;;;;5063822;28;20448;-61
2021/08/31 03:53:50;;;;;;;0.10;0.10;;;;;;;;;;5064431;28;20245;-61
2021/08/31 03:56:16;;;;;;;0.10;0.10;;;;;;;;;;5065279;28;20204;-61
2021/08/31 03:58:42;;;;;;;0.10;0.10;;;;;;;;;;5074530;28;20283;-61
2021/08/31 04:01:10;;;;;;;0.10;0.10;;;;;;;;;;5081030;28;20367;-61
2021/08/31 04:03:36;;;;;;;0.10;0.10;;;;;;;;;;5081921;28;20247;-60
2021/08/31 04:06:02;;;;;;;0.10;0.10;;;;;;;;;;5066373;28;20204;-60
2021/08/31 04:08:29;;;;;;;0.00;0.00;;;;;;;;;;5064095;28;20211;-60
2021/08/31 04:10:55;;;;;;;0.10;0.10;;;;;;;;;;5064110;28;20250;-60
2021/08/31 04:13:21;;;;;;;0.00;0.00;;;;;;;;;;5076904;28;20206;-60
2021/08/31 04:15:48;;;;;;;0.10;0.10;;;;;;;;;;5072905;28;20211;-60
2021/08/31 04:18:15;;;;;;;0.00;0.00;;;;;;;;;;5073288;28;20230;-62
2021/08/31 04:20:42;;;;;;;0.08;0.08;;;;;;;;;;5066689;28;20200;-61
2021/08/31 04:23:08;;;;;;;0.10;0.10;;;;;;;;;;5064139;28;20204;-62
2021/08/31 04:25:35;;;;;;;0.10;0.10;;;;;;;;;;5067843;28;20412;-61
2021/08/31 04:28:01;;;;;;;0.10;0.10;;;;;;;;;;5082914;28;20454;-61
2021/08/31 04:30:27;;;;;;;0.03;0.03;;;;;;;;;;5068191;28;20534;-61
2021/08/31 04:32:53;;;;;;;0.10;0.10;;;;;;;;;;5080791;28;20214;-61
2021/08/31 04:35:21;;;;;;;0.10;0.10;;;;;;;;;;5066295;28;20242;-61
2021/08/31 04:37:47;;;;;;;0.07;0.07;;;;;;;;;;5057564;28;20251;-60
2021/08/31 04:40:14;;;;;;;0.10;0.10;;;;;;;;;;5058488;28;20274;-60
2021/08/31 04:42:40;;;;;;;0.10;0.10;;;;;;;;;;5065753;28;20206;-62
2021/08/31 04:45:07;;;;;;;0.10;0.10;;;;;;;;;;5068887;28;20228;-61
2021/08/31 04:47:33;;;;;;;0.10;0.10;;;;;;;;;;5069889;28;20498;-60
2021/08/31 04:49:59;;;;;;;0.10;0.10;;;;;;;;;;5063987;28;20242;-60
2021/08/31 04:52:27;;;;;;;0.10;0.10;;;;;;;;;;5063662;28;20214;-61
2021/08/31 04:54:53;;;;;;;0.10;0.10;;;;;;;;;;5064716;28;20207;-60
2021/08/31 04:57:19;;;;;;;0.10;0.10;;;;;;;;;;5065405;28;20258;-61
2021/08/31 04:59:46;;;;;;;0.10;0.10;;;;;;;;;;5065212;28;20241;-61
2021/08/31 05:02:12;;;;;;;0.03;0.03;;;;;;;;;;5074505;28;20199;-61
2021/08/31 05:04:38;;;;;;;0.00;0.00;;;;;;;;;;5081488;28;20202;-60
2021/08/31 05:07:06;;;;;;;0.10;0.10;;;;;;;;;;5081682;28;20199;-61
2021/08/31 05:09:34;;;;;;;0.10;0.10;;;;;;;;;;5055618;28;20298;-61
2021/08/31 05:12:00;;;;;;;0.00;0.00;;;;;;;;;;5079522;28;20227;-62
2021/08/31 05:14:26;;;;;;;0.10;0.10;;;;;;;;;;5073364;28;20207;-61
2021/08/31 05:16:53;;;;;;;0.10;0.10;;;;;;;;;;5076830;28;20213;-61
2021/08/31 05:19:19;;;;;;;0.10;0.10;;;;;;;;;;5063640;28;20235;-61
2021/08/31 05:21:48;;;;;;;0.10;0.10;;;;;;;;;;5068785;28;20199;-61
2021/08/31 05:24:14;;;;;;;0.10;0.10;;;;;;;;;;5060941;28;20513;-61
2021/08/31 05:26:42;;;;;;;0.10;0.10;;;;;;;;;;5056418;28;20418;-61
2021/08/31 05:29:08;;;;;;;0.10;0.10;;;;;;;;;;5067746;28;20321;-60
2021/08/31 05:31:34;;;;;;;0.10;0.10;;;;;;;;;;5081676;28;20414;-61
2021/08/31 05:34:00;;;;;;;0.10;0.10;;;;;;;;;;5076504;28;20559;-61
2021/08/31 05:36:27;;;;;;;0.10;0.10;;;;;;;;;;5078774;28;20207;-60
2021/08/31 05:38:53;;;;;;;0.00;0.00;;;;;;;;;;5066559;28;20211;-60
2021/08/31 05:41:19;;;;;;;0.10;0.10;;;;;;;;;;5061797;28;20242;-61
2021/08/31 05:43:47;;;;;;;0.10;0.10;;;;;;;;;;5062888;28;20374;-60
2021/08/31 05:46:13;;;;;;;2.47;2.38;;;;;;;;;;5071269;28;20211;-60
2021/08/31 05:48:39;;;;;;;0.20;0.20;;;;;;;;;;5063323;28;20210;-61
2021/08/31 05:51:08;;;;;;;0.10;0.10;;;;;;;;;;5066966;28;20227;-60
2021/08/31 05:53:34;;;;;;;0.10;0.10;;;;;;;;;;5062792;28;20247;-61
2021/08/31 05:56:00;;;;;;;0.20;0.20;;;;;;;;;;5064988;28;20249;-60
2021/08/31 05:58:29;;;;;;;0.10;0.10;;;;;;;;;;5083885;28;20544;-62
2021/08/31 06:00:57;;;;;;;0.10;0.10;;;;;;;;;;5068606;28;20203;-60
2021/08/31 06:03:23;;;;;;;0.10;0.10;;;;;;;;;;5059500;28;20212;-61
2021/08/31 06:05:49;;;;;;;0.00;0.00;;;;;;;;;;5046150;28;20208;-62
2021/08/31 06:08:15;;;;;;;0.10;0.10;;;;;;;;;;5058762;28;20496;-61
2021/08/31 06:10:42;;;;;;;0.10;0.10;;;;;;;;;;5059341;28;20537;-61
2021/08/31 06:13:08;;;;;;;0.00;0.00;;;;;;;;;;5054414;28;20210;-60
2021/08/31 06:15:34;;;;;;;0.00;0.00;;;;;;;;;;5056249;28;20214;-61
2021/08/31 06:18:02;;;;;;;0.10;0.10;;;;;;;;;;5059528;28;20235;-61
2021/08/31 06:20:28;;;;;;;0.10;0.10;;;;;;;;;;5060410;28;20367;-61
2021/08/31 06:22:54;;;;;;;0.10;0.10;;;;;;;;;;5082229;28;20276;-61
2021/08/31 06:25:21;;;;;;;0.10;0.10;;;;;;;;;;5077554;28;20210;-60
2021/08/31 06:27:47;;;;;;;0.10;0.10;;;;;;;;;;5056171;28;20210;-59
2021/08/31 06:30:13;;;;;;;0.10;0.10;;;;;;;;;;5056545;28;20490;-59
2021/08/31 06:32:40;;;;;;;0.10;0.10;;;;;;;;;;5062517;28;20224;-60
2021/08/31 06:35:08;;;;;;;0.10;0.10;;;;;;;;;;5062370;28;20279;-59
2021/08/31 06:37:34;;;;;;;0.10;0.10;;;;;;;;;;5065440;28;20211;-59
2021/08/31 06:40:00;;;;;;;0.00;0.00;;;;;;;;;;5053809;28;20248;-60
2021/08/31 06:42:27;;;;;;;0.10;0.10;;;;;;;;;;5056019;28;20208;-60
2021/08/31 06:44:53;;;;;;;0.10;0.10;;;;;;;;;;5061507;28;20466;-60
2021/08/31 06:47:19;;;;;;;0.10;0.10;;;;;;;;;;5066073;28;20378;-59
2021/08/31 06:49:45;;;;;;;0.10;0.10;;;;;;;;;;5052714;28;20228;-62
2021/08/31 06:52:13;;;;;;;0.10;0.10;;;;;;;;;;5048183;28;20373;-60
2021/08/31 06:54:39;;;;;;;0.10;0.10;;;;;;;;;;5065779;28;20556;-61
2021/08/31 06:57:06;;;;;;;0.10;0.10;;;;;;;;;;5058818;28;20209;-60
2021/08/31 06:59:33;;;;;;;0.10;0.10;;;;;;;;;;5058808;28;20502;-59
2021/08/31 07:01:59;;;;;;;1.03;1.03;;;;;;;;;;5054300;28;20283;-60
2021/08/31 07:04:26;;;;;;;0.10;0.10;;;;;;;;;;5059236;28;20490;-60
2021/08/31 07:06:52;;;;;;;0.10;0.10;;;;;;;;;;5050906;28;20201;-59
2021/08/31 07:09:20;;;;;;;0.10;0.10;;;;;;;;;;5055160;28;20248;-59
2021/08/31 07:11:46;;;;;;;0.10;0.10;;;;;;;;;;5053758;28;20228;-60
2021/08/31 07:14:12;;;;;;;0.20;0.20;;;;;;;;;;5053533;28;20214;-60
2021/08/31 07:16:39;;;;;;;0.10;0.10;;;;;;;;;;5062096;28;20490;-60
2021/08/31 07:19:05;;;;;;;0.40;0.40;;;;;;;;;;5052004;28;20405;-59
2021/08/31 07:21:32;;;;;;;0.00;0.00;;;;;;;;;;5054104;28;20226;-61
2021/08/31 07:23:58;;;;;;;0.10;0.10;;;;;;;;;;5053619;28;20221;-59
2021/08/31 07:26:25;;;;;;;0.10;0.10;;;;;;;;;;5055446;28;20256;-59
2021/08/31 07:28:52;;;;;;;0.10;0.10;;;;;;;;;;5056771;28;20248;-59
2021/08/31 07:31:19;;;;;;;0.10;0.10;;;;;;;;;;5058746;28;21402;-59
2021/08/31 07:33:45;;;;;;;0.10;0.10;;;;;;;;;;5054381;28;20216;-59
2021/08/31 07:36:12;;;;;;;0.10;0.10;;;;;;;;;;5060748;28;20426;-59
2021/08/31 07:38:38;;;;;;;0.30;0.30;;;;;;;;;;5056642;28;20208;-60
2021/08/31 07:41:04;;;;;;;0.10;0.10;;;;;;;;;;5054457;28;20296;-59
2021/08/31 07:43:32;;;;;;;0.10;0.10;;;;;;;;;;5055729;28;20247;-59
2021/08/31 07:45:58;;;;;;;0.08;0.08;;;;;;;;;;5054029;28;20211;-59
2021/08/31 07:48:24;;;;;;;0.03;0.03;;;;;;;;;;5058559;28;20209;-60
2021/08/31 07:50:51;;;;;;;0.00;0.00;;;;;;;;;;5050317;28;20218;-61
2021/08/31 07:53:17;;;;;;;0.10;0.10;;;;;;;;;;5057297;28;20211;-60
2021/08/31 07:55:43;;;;;;;0.10;0.10;;;;;;;;;;5058878;28;20315;-59
2021/08/31 07:58:09;;;;;;;0.10;0.10;;;;;;;;;;5057492;28;20204;-58
2021/08/31 08:00:39;;;;;;;0.10;0.10;;;;;;;;;;5059518;28;20244;-59
2021/08/31 08:03:06;;;;;;;0.10;0.10;;;;;;;;;;5056652;28;20245;-60
2021/08/31 08:05:32;;;;;;;0.10;0.10;;;;;;;;;;5057369;28;20213;-59
2021/08/31 08:07:58;;;;;;;0.03;0.03;;;;;;;;;;5056891;28;20206;-60
2021/08/31 08:10:24;;;;;;;0.00;0.00;;;;;;;;;;5052926;28;20256;-59
2021/08/31 08:12:51;;;;;;;0.00;0.00;;;;;;;;;;5050278;28;20414;-59
2021/08/31 08:15:17;;;;;;;0.10;0.10;;;;;;;;;;5059329;28;20374;-60
2021/08/31 08:17:44;;;;;;;0.10;0.10;;;;;;;;;;5058948;28;20235;-61
2021/08/31 08:20:11;;;;;;;0.00;0.00;;;;;;;;;;5059425;28;20538;-59
2021/08/31 08:22:37;;;;;;;0.05;0.05;;;;;;;;;;5071049;28;20203;-59
2021/08/31 08:25:04;;;;;;;0.10;0.10;;;;;;;;;;5082238;28;20218;-60
2021/08/31 08:27:30;;;;;;;0.10;0.10;;;;;;;;;;5069195;28;20510;-60
2021/08/31 08:29:56;;;;;;;0.10;0.10;;;;;;;;;;5052903;28;20237;-60
2021/08/31 08:32:23;;;;;;;0.10;0.10;;;;;;;;;;5077513;28;20221;-59
2021/08/31 08:34:50;;;;;;;0.10;0.10;;;;;;;;;;5077981;28;20250;-60
2021/08/31 08:37:17;;;;;;;0.10;0.10;;;;;;;;;;5054230;28;20214;-59
2021/08/31 08:39:43;;;;;;;0.10;0.10;;;;;;;;;;5057724;28;20389;-60
2021/08/31 08:42:09;;;;;;;0.10;0.10;;;;;;;;;;5062731;28;20208;-59
2021/08/31 08:44:36;;;;;;;0.10;0.10;;;;;;;;;;5058363;28;20219;-60
2021/08/31 08:47:03;;;;;;;0.10;0.10;;;;;;;;;;5063171;28;20245;-60
2021/08/31 08:49:29;;;;;;;0.10;0.10;;;;;;;;;;5062532;28;20290;-60
2021/08/31 08:51:58;;;;;;;0.00;0.00;;;;;;;;;;5063219;28;20571;-61
2021/08/31 08:54:25;;;;;;;0.00;0.00;;;;;;;;;;5061652;28;20205;-60
2021/08/31 08:56:52;;;;;;;0.00;0.00;;;;;;;;;;5052713;28;20210;-62
2021/08/31 08:59:18;;;;;;;0.10;0.10;;;;;;;;;;5063224;28;20211;-60
2021/08/31 09:01:47;;;;;;;0.00;0.00;;;;;;;;;;5062760;28;20197;-60
2021/08/31 09:04:14;;;;;;;0.00;0.00;;;;;;;;;;5051660;28;20242;-60
2021/08/31 09:06:41;;;;;;;0.10;0.10;;;;;;;;;;5058105;28;20204;-61
2021/08/31 09:09:09;;;;;;;0.05;0.05;;;;;;;;;;5057445;28;20203;-60
2021/08/31 09:11:37;;;;;;;0.08;0.08;;;;;;;;;;5058518;28;20462;-61
2021/08/31 09:14:21;;;;;;;0.10;0.10;;;;;;;;;;5060004;28;20205;-59
2021/08/31 09:16:48;;;;;;;0.00;0.00;;;;;;;;;;5061013;28;20432;-60
2021/08/31 09:19:14;;;;;;;0.00;0.00;;;;;;;;;;5063140;28;20238;-61
2021/08/31 09:21:41;;;;;;;0.08;0.08;;;;;;;;;;5050517;28;20512;-60
2021/08/31 09:24:11;;;;;;;0.08;0.08;;;;;;;;;;5062694;28;20220;-60
2021/08/31 09:26:39;;;;;;;0.10;0.10;;;;;;;;;;5075073;28;20201;-59
2021/08/31 09:29:12;;;;;;;0.00;0.00;;;;;;;;;;5074488;28;20205;-59
2021/08/31 09:31:46;;;;;;;0.00;0.00;;;;;;;;;;5063278;28;20441;-60
2021/08/31 09:34:27;;;;;;;0.20;0.20;;;;;;;;;;5074797;28;20205;-59
2021/08/31 09:36:56;;;;;;;0.00;0.00;;;;;;;;;;5064918;28;20551;-62
2021/08/31 09:39:28;;;;;;;0.10;0.10;;;;;;;;;;5070270;28;20214;-59
2021/08/31 09:41:55;;;;;;;0.10;0.10;;;;;;;;;;5055271;28;20206;-60
2021/08/31 09:44:22;;;;;;;0.00;0.00;;;;;;;;;;5071702;28;20204;-60
2021/08/31 09:46:49;;;;;;;0.05;0.05;;;;;;;;;;5063217;28;20213;-59
2021/08/31 09:49:23;;;;;;;0.00;0.00;;;;;;;;;;5063042;28;20207;-61
2021/08/31 09:51:59;;;;;;;0.10;0.10;;;;;;;;;;5049982;28;20245;-60
2021/08/31 09:54:27;;;;;;;0.05;0.05;;;;;;;;;;5065390;28;20209;-59
2021/08/31 09:56:53;;;;;;;0.10;0.10;;;;;;;;;;5060119;28;20212;-62
2021/08/31 09:59:20;;;;;;;0.05;0.05;;;;;;;;;;5062511;28;20232;-59
2021/08/31 10:01:46;;;;;;;0.00;0.00;;;;;;;;;;5052424;28;20513;-60
2021/08/31 10:04:13;;;;;;;0.10;0.10;;;;;;;;;;5055176;28;20296;-59
2021/08/31 10:06:40;;;;;;;0.10;0.10;;;;;;;;;;5055465;28;20219;-58
2021/08/31 10:09:07;;;;;;;0.08;0.08;;;;;;;;;;5062790;28;20213;-59
2021/08/31 10:11:35;;;;;;;0.00;0.00;;;;;;;;;;5065316;28;20207;-59
2021/08/31 10:14:02;;;;;;;0.10;0.10;;;;;;;;;;5058928;28;20279;-59
2021/08/31 10:16:28;;;;;;;0.10;0.10;;;;;;;;;;5066482;28;20229;-58
2021/08/31 10:18:55;;;;;;;0.00;0.00;;;;;;;;;;5063832;28;20248;-59
2021/08/31 10:21:24;;;;;;;0.00;0.00;;;;;;;;;;5066407;28;20229;-60
2021/08/31 10:23:50;;;;;;;0.10;0.10;;;;;;;;;;5079000;28;20235;-60
2021/08/31 10:26:30;;;;;;;0.00;0.00;;;;;;;;;;5075413;28;20210;-60
2021/08/31 10:29:15;;;;;;;0.10;0.10;;;;;;;;;;5078543;28;20197;-60
2021/08/31 10:31:43;;;;;;;0.00;0.00;;;;;;;;;;5079860;28;20205;-60
2021/08/31 10:34:24;;;;;;;0.00;0.00;;;;;;;;;;5074734;28;20239;-60
2021/08/31 10:36:59;;;;;;;0.00;0.00;;;;;;;;;;5073587;28;20206;-60
2021/08/31 10:39:40;;;;;;;0.08;0.08;;;;;;;;;;5073284;28;20203;-59
2021/08/31 10:42:09;;;;;;;0.00;0.00;;;;;;;;;;5053844;28;20258;-59
2021/08/31 10:44:37;;;;;;;0.00;0.00;;;;;;;;;;5070130;28;20273;-59
2021/08/31 10:47:06;;;;;;;0.10;0.10;;;;;;;;;;5069286;28;20203;-59
2021/08/31 10:49:33;;;;;;;0.10;0.10;;;;;;;;;;5071281;28;20206;-61
2021/08/31 10:52:06;;;;;;;0.00;0.00;;;;;;;;;;5062150;28;20246;-61
2021/08/31 10:54:53;;;;;;;0.10;0.10;;;;;;;;;;5060624;28;20405;-60
2021/08/31 10:57:38;;;;;;;0.00;0.00;;;;;;;;;;5058861;28;20557;-60
2021/08/31 11:00:05;;;;;;;0.10;0.10;;;;;;;;;;5061826;28;20218;-60
2021/08/31 11:02:50;;;;;;;0.00;0.00;;;;;;;;;;5064960;28;20203;-60
2021/08/31 11:05:27;;;;;;;0.00;0.00;;;;;;;;;;5064961;28;20202;-60
2021/08/31 11:08:11;;;;;;;0.00;0.00;;;;;;;;;;5058255;28;20198;-60
2021/08/31 11:10:39;;;;;;;0.10;0.10;;;;;;;;;;5062205;28;20223;-60
2021/08/31 11:13:08;;;;;;;0.05;0.05;;;;;;;;;;5062452;28;20264;-60
2021/08/31 11:15:34;;;;;;;0.00;0.00;;;;;;;;;;5065132;28;20253;-61
2021/08/31 11:18:01;;;;;;;0.00;0.00;;;;;;;;;;5064119;28;20272;-62
2021/08/31 11:20:29;;;;;;;0.00;0.00;;;;;;;;;;5061820;28;20507;-62
2021/08/31 11:23:06;;;;;;;0.10;0.10;;;;;;;;;;5074585;28;20211;-62
2021/08/31 11:25:33;;;;;;;0.10;0.10;;;;;;;;;;5052927;28;20207;-65
2021/08/31 11:28:01;;;;;;;0.05;0.05;;;;;;;;;;5074375;28;20222;-60
2021/08/31 11:30:27;;;;;;;0.00;0.00;;;;;;;;;;5066098;28;20266;-64
2021/08/31 11:33:18;;;;;;;0.00;0.00;;;;;;;;;;5085267;28;20292;-67
2021/08/31 11:35:45;;;;;;;0.00;0.00;;;;;;;;;;5075519;28;20402;-60
2021/08/31 11:38:12;;;;;;;0.00;0.00;;;;;;;;;;5082030;28;20265;-62
2021/08/31 11:40:39;;;;;;;0.00;0.00;;;;;;;;;;5064963;28;20213;-62
2021/08/31 11:43:05;;;;;;;0.08;0.08;;;;;;;;;;5059859;28;20224;-62
2021/08/31 11:45:35;;;;;;;0.00;0.00;;;;;;;;;;5069779;28;20228;-64
2021/08/31 11:48:04;;;;;;;0.00;0.00;;;;;;;;;;5060791;28;20491;-64
2021/08/31 11:50:30;;;;;;;0.08;0.08;;;;;;;;;;5067815;28;20225;-65
2021/08/31 11:53:12;;;;;;;0.00;0.00;;;;;;;;;;5066571;28;20264;-64
2021/08/31 11:55:38;;;;;;;0.00;0.00;;;;;;;;;;5058746;28;20241;-65
2021/08/31 11:58:05;;;;;;;0.00;0.00;;;;;;;;;;5082084;28;20269;-65
2021/08/31 12:00:41;;;;;;;0.00;0.00;;;;;;;;;;5064483;28;20213;-64
2021/08/31 12:03:18;;;;;;;0.00;0.00;;;;;;;;;;5079104;28;20509;-68
2021/08/31 12:05:44;;;;;;;0.00;0.00;;;;;;;;;;5054321;28;20241;-67
2021/08/31 12:08:12;;;;;;;0.10;0.10;;;;;;;;;;5057300;28;20202;-65
2021/08/31 12:10:38;;;;;;;0.38;0.38;;;;;;;;;;5059573;28;20206;-68
2021/08/31 12:13:04;;;;;;;0.25;0.25;;;;;;;;;;5063315;28;20276;-67
2021/08/31 12:15:31;;;;;;;0.10;0.10;;;;;;;;;;5061209;28;20227;-65
2021/08/31 12:18:01;;;;;;;0.00;0.00;;;;;;;;;;5056107;28;20231;-65
2021/08/31 12:20:27;;;;;;;0.10;0.10;;;;;;;;;;5053360;28;20243;-64
2021/08/31 12:22:55;;;;;;;0.10;0.10;;;;;;;;;;5055050;28;20383;-64
2021/08/31 12:25:23;;;;;;;0.03;0.03;;;;;;;;;;5055923;28;20210;-64
2021/08/31 12:27:51;;;;;;;0.00;0.00;;;;;;;;;;5055961;28;20211;-65
2021/08/31 12:30:18;;;;;;;0.10;0.10;;;;;;;;;;5060571;28;20217;-67
2021/08/31 12:32:53;;;;;;;0.10;0.10;;;;;;;;;;5060769;28;20294;-66
2021/08/31 12:35:23;;;;;;;0.00;0.00;;;;;;;;;;5052264;28;20204;-67
2021/08/31 12:38:03;;;;;;;0.00;0.00;;;;;;;;;;5052813;28;20202;-67
2021/08/31 12:40:33;;;;;;;0.50;0.50;;;;;;;;;;5057915;28;20196;-68
2021/08/31 12:43:04;;;;;;;0.10;0.10;;;;;;;;;;5063196;28;20249;-66
2021/08/31 12:45:30;;;;;;;1.00;1.00;;;;;;;;;;5053009;28;20207;-64
2021/08/31 12:47:58;;;;;;;0.30;0.30;;;;;;;;;;5050538;28;20467;-63
2021/08/31 12:50:24;;;;;;;0.10;0.10;;;;;;;;;;5050505;28;20218;-63
2021/08/31 12:53:04;;;;;;;0.15;0.15;;;;;;;;;;5056693;28;20247;-63
2021/08/31 12:55:32;;;;;;;0.30;0.30;;;;;;;;;;5051970;28;20248;-64
2021/08/31 12:58:17;;;;;;;0.10;0.10;;;;;;;;;;5062747;28;20208;-62
2021/08/31 13:00:44;;;;;;;0.10;0.10;;;;;;;;;;5054632;28;20206;-62
2021/08/31 13:03:25;;;;;;;0.00;0.00;;;;;;;;;;5061449;28;20204;-64
2021/08/31 13:05:51;;;;;;;0.10;0.10;;;;;;;;;;5055469;28;20204;-66
2021/08/31 13:08:17;;;;;;;0.00;0.00;;;;;;;;;;5061775;28;20275;-65
2021/08/31 13:10:45;;;;;;;0.10;0.10;;;;;;;;;;5063166;28;20439;-66
2021/08/31 13:13:11;;;;;;;0.10;0.10;;;;;;;;;;5060291;28;20415;-65
2021/08/31 13:15:38;;;;;;;0.08;0.08;;;;;;;;;;5056262;28;20447;-68
2021/08/31 13:18:04;;;;;;;0.00;0.00;;;;;;;;;;5053659;28;20452;-64
2021/08/31 13:20:30;;;;;;;0.10;0.10;;;;;;;;;;5058363;28;20203;-62
2021/08/31 13:22:56;;;;;;;0.10;0.10;;;;;;;;;;5050626;28;20203;-67
2021/08/31 13:25:23;;;;;;;0.10;0.10;;;;;;;;;;5053666;28;20207;-65
2021/08/31 13:27:51;;;;;;;0.00;0.00;;;;;;;;;;5053142;28;20211;-65
2021/08/31 13:30:17;;;;;;;0.00;0.00;;;;;;;;;;5062773;28;20215;-67
2021/08/31 13:32:43;;;;;;;0.00;0.00;;;;;;;;;;5059840;28;20212;-65
2021/08/31 13:35:10;;;;;;;0.08;0.08;;;;;;;;;;5063001;28;20210;-65
2021/08/31 13:37:36;;;;;;;0.00;0.00;;;;;;;;;;5057370;28;20246;-66
2021/08/31 13:40:02;;;;;;;0.10;0.10;;;;;;;;;;5055098;28;20262;-68
2021/08/31 13:42:28;;;;;;;0.00;0.00;;;;;;;;;;5063095;28;20212;-65
2021/08/31 13:44:56;;;;;;;0.05;0.05;;;;;;;;;;5066398;28;20204;-66
2021/08/31 13:47:22;;;;;;;0.10;0.10;;;;;;;;;;5067104;28;20206;-65
2021/08/31 13:49:49;;;;;;;0.00;0.00;;;;;;;;;;5066958;28;20200;-67
2021/08/31 13:52:15;;;;;;;0.00;0.00;;;;;;;;;;5063245;28;20234;-65
2021/08/31 13:54:41;;;;;;;0.08;0.08;;;;;;;;;;5056519;28;20251;-65
2021/08/31 13:57:07;;;;;;;0.15;0.15;;;;;;;;;;5060563;28;20211;-65
2021/08/31 13:59:34;;;;;;;0.10;0.10;;;;;;;;;;5066728;28;20211;-66
2021/08/31 14:02:01;;;;;;;0.10;0.10;;;;;;;;;;5065059;28;20488;-65
2021/08/31 14:04:27;;;;;;;0.10;0.10;;;;;;;;;;5065450;28;20368;-65
2021/08/31 14:06:53;;;;;;;0.05;0.05;;;;;;;;;;5066968;28;20207;-65
2021/08/31 14:09:20;;;;;;;0.00;0.00;;;;;;;;;;5066693;28;20211;-65
2021/08/31 14:11:46;;;;;;;0.03;0.03;;;;;;;;;;5066865;28;20446;-64
2021/08/31 14:14:12;;;;;;;0.10;0.10;;;;;;;;;;5060294;28;20220;-65
2021/08/31 14:16:39;;;;;;;0.40;0.40;;;;;;;;;;5066711;28;20202;-65
2021/08/31 14:19:06;;;;;;;0.05;0.05;;;;;;;;;;5062180;28;20248;-64
2021/08/31 14:21:32;;;;;;;0.10;0.10;;;;;;;;;;5078399;28;20226;-66
2021/08/31 14:23:59;;;;;;;0.10;0.10;;;;;;;;;;5071223;28;20206;-65
2021/08/31 14:26:25;;;;;;;0.03;0.03;;;;;;;;;;5083910;28;20210;-65
2021/08/31 14:28:52;;;;;;;0.00;0.00;;;;;;;;;;5069604;28;20528;-67
2021/08/31 14:31:18;;;;;;;0.10;0.10;;;;;;;;;;5072353;28;20206;-65
2021/08/31 14:33:44;;;;;;;0.00;0.00;;;;;;;;;;5066204;28;20418;-67
2021/08/31 14:36:12;;;;;;;0.00;0.00;;;;;;;;;;5072613;28;20249;-65
2021/08/31 14:38:38;;;;;;;0.10;0.10;;;;;;;;;;5066608;28;20215;-66
2021/08/31 14:41:04;;;;;;;0.08;0.08;;;;;;;;;;5056594;28;20499;-67
2021/08/31 14:43:31;;;;;;;0.00;0.00;;;;;;;;;;5066351;28;20541;-66
2021/08/31 14:45:57;;;;;;;0.10;0.10;;;;;;;;;;5069119;28;20206;-67